createdAt,value
2022-08-04T00:10:27.549Z,0.70
2022-08-04T00:24:27.553Z,0.50
2022-08-04T00:38:42.596Z,0.60
2022-08-04T00:52:42.726Z,0.70
2022-08-04T01:06:43.487Z,0.60
2022-08-04T01:20:43.560Z,0.50
2022-08-04T01:34:43.574Z,0.90
2022-08-04T01:48:43.683Z,0.60
2022-08-04T02:02:43.722Z,0.80
2022-08-04T02:16:43.827Z,0.60
2022-08-04T02:30:43.864Z,0.70
2022-08-04T02:44:43.873Z,0.60
2022-08-04T02:58:43.888Z,0.60
2022-08-04T03:12:43.899Z,0.60
2022-08-04T03:26:43.865Z,0.60
2022-08-04T03:40:43.876Z,0.70
2022-08-04T03:55:43.922Z,0.60
2022-08-04T04:10:43.888Z,0.70
2022-08-04T04:25:43.887Z,0.60
2022-08-04T04:40:44.086Z,0.60
2022-08-04T04:55:47.746Z,1.00
2022-08-04T05:10:43.909Z,0.60
2022-08-04T05:25:50.022Z,0.60
2022-08-04T05:40:43.945Z,0.70
2022-08-04T05:48:30.563Z,0.70
2022-08-04T06:03:30.581Z,0.90
2022-08-04T06:18:34.201Z,0.70
2022-08-04T06:33:30.925Z,0.70
2022-08-04T06:48:31.729Z,0.60
2022-08-04T07:03:31.146Z,0.60
2022-08-04T07:18:31.145Z,0.80
2022-08-04T07:23:33.885Z,0.60
2022-08-04T07:38:33.854Z,0.60
2022-08-04T07:53:53.817Z,0.90
2022-08-04T08:08:34.110Z,1.10
2022-08-04T08:23:34.152Z,0.60
2022-08-04T08:38:34.215Z,0.70
2022-08-04T08:53:34.416Z,0.60
2022-08-04T09:08:34.585Z,0.80
2022-08-04T09:23:34.573Z,0.80
2022-08-04T09:38:34.548Z,0.80
2022-08-04T09:53:34.595Z,1.00
2022-08-04T10:09:34.648Z,0.90
2022-08-04T10:25:37.858Z,0.80
2022-08-04T10:41:34.714Z,1.10
2022-08-04T10:57:34.839Z,0.80
2022-08-04T11:13:34.894Z,0.80
2022-08-04T11:28:34.889Z,0.80
2022-08-04T11:44:34.895Z,0.80
2022-08-04T11:59:35.401Z,1.00
2022-08-04T12:15:34.897Z,0.90
2022-08-04T12:30:55.846Z,0.90
2022-08-04T12:45:34.904Z,0.90
2022-08-04T13:00:39.947Z,0.90
2022-08-04T13:15:46.916Z,1.10
2022-08-04T13:30:34.921Z,1.10
2022-08-04T13:45:35.352Z,1.10
2022-08-04T14:00:34.937Z,1.00
2022-08-04T14:15:55.270Z,1.20
2022-08-04T14:30:35.025Z,1.10
2022-08-04T14:45:35.132Z,0.90
2022-08-04T15:00:35.180Z,1.20
2022-08-04T15:16:35.277Z,1.20
2022-08-04T15:32:05.123Z,1.40
2022-08-04T15:47:35.329Z,1.20
2022-08-04T16:02:35.470Z,1.20
2022-08-04T16:17:35.344Z,1.10
2022-08-04T16:33:43.519Z,1.20
2022-08-04T16:48:35.377Z,1.10
2022-08-04T17:03:35.384Z,1.10
2022-08-04T17:18:35.374Z,1.10
2022-08-04T17:33:54.594Z,1.10
2022-08-04T17:48:35.372Z,1.00
2022-08-04T18:03:35.384Z,0.90
2022-08-04T18:18:35.399Z,0.80
2022-08-04T18:33:37.983Z,0.90
2022-08-04T18:50:22.237Z,0.90
2022-08-04T19:04:36.873Z,0.70
2022-08-04T19:19:47.999Z,0.90
2022-08-04T19:33:55.787Z,0.90
2022-08-04T19:48:11.896Z,1.00
2022-08-04T20:01:38.119Z,0.90
2022-08-04T20:15:35.523Z,0.70
2022-08-04T20:29:37.132Z,0.90
2022-08-04T20:43:35.549Z,0.80
2022-08-04T20:57:49.025Z,0.80
2022-08-04T21:11:35.572Z,0.80
2022-08-04T21:25:43.031Z,0.90
2022-08-04T21:39:43.797Z,0.95
2022-08-04T21:53:35.605Z,0.80
2022-08-04T22:07:47.779Z,0.80
2022-08-04T22:21:39.034Z,1.00
2022-08-04T22:35:44.478Z,1.00
2022-08-04T22:49:35.871Z,0.80
2022-08-04T23:03:36.738Z,0.80
2022-08-04T23:17:43.950Z,0.90
2022-08-04T23:31:41.443Z,1.00
2022-08-04T23:46:05.266Z,0.80
2022-08-04T23:59:49.207Z,0.90
